sensor_id;sensor_type;location;lat;lon;timestamp;temperature;humidity
66871;DHT22;53780;44.998;9.926;2022-07-29T00:01:27;23.71;76.97
66871;DHT22;53780;44.998;9.926;2022-07-29T00:04:34;23.78;75.78
66871;DHT22;53780;44.998;9.926;2022-07-29T00:07:38;23.82;75.61
66871;DHT22;53780;44.998;9.926;2022-07-29T00:10:42;23.85;75.83
66871;DHT22;53780;44.998;9.926;2022-07-29T00:13:46;23.78;75.05
66871;DHT22;53780;44.998;9.926;2022-07-29T00:16:50;23.74;75.17
66871;DHT22;53780;44.998;9.926;2022-07-29T00:19:53;23.69;74.85
66871;DHT22;53780;44.998;9.926;2022-07-29T00:22:57;23.74;74.71
66871;DHT22;53780;44.998;9.926;2022-07-29T00:26:01;23.84;74.86
66871;DHT22;53780;44.998;9.926;2022-07-29T00:29:05;23.84;75.41
66871;DHT22;53780;44.998;9.926;2022-07-29T00:32:09;23.78;75.66
66871;DHT22;53780;44.998;9.926;2022-07-29T00:35:12;23.65;76.09
66871;DHT22;53780;44.998;9.926;2022-07-29T00:38:34;23.60;76.29
66871;DHT22;53780;44.998;9.926;2022-07-29T00:41:38;23.46;76.61
66871;DHT22;53780;44.998;9.926;2022-07-29T00:44:45;23.47;76.00
66871;DHT22;53780;44.998;9.926;2022-07-29T00:47:49;23.57;75.59
66871;DHT22;53780;44.998;9.926;2022-07-29T00:50:53;23.60;75.01
66871;DHT22;53780;44.998;9.926;2022-07-29T00:53:57;23.51;74.97
66871;DHT22;53780;44.998;9.926;2022-07-29T00:57:01;23.50;74.88
66871;DHT22;53780;44.998;9.926;2022-07-29T01:00:08;23.54;75.52
66871;DHT22;53780;44.998;9.926;2022-07-29T01:03:12;23.58;75.14
66871;DHT22;53780;44.998;9.926;2022-07-29T01:06:17;23.55;74.04
66871;DHT22;53780;44.998;9.926;2022-07-29T01:09:21;23.54;75.16
66871;DHT22;53780;44.998;9.926;2022-07-29T01:12:27;23.58;75.00
66871;DHT22;53780;44.998;9.926;2022-07-29T01:15:33;23.55;75.51
66871;DHT22;53780;44.998;9.926;2022-07-29T01:18:45;23.53;75.51
66871;DHT22;53780;44.998;9.926;2022-07-29T01:21:50;23.53;75.69
66871;DHT22;53780;44.998;9.926;2022-07-29T01:35:17;23.36;75.23
66871;DHT22;53780;44.998;9.926;2022-07-29T01:38:24;23.39;74.95
66871;DHT22;53780;44.998;9.926;2022-07-29T01:41:31;23.46;74.47
66871;DHT22;53780;44.998;9.926;2022-07-29T01:44:41;23.49;74.53
66871;DHT22;53780;44.998;9.926;2022-07-29T01:51:35;23.57;75.54
66871;DHT22;53780;44.998;9.926;2022-07-29T01:54:42;23.61;74.72
66871;DHT22;53780;44.998;9.926;2022-07-29T01:57:48;23.65;75.41
66871;DHT22;53780;44.998;9.926;2022-07-29T02:00:53;23.61;76.52
66871;DHT22;53780;44.998;9.926;2022-07-29T02:03:59;23.60;75.22
66871;DHT22;53780;44.998;9.926;2022-07-29T02:07:07;23.54;75.43
66871;DHT22;53780;44.998;9.926;2022-07-29T02:10:14;23.44;76.03
66871;DHT22;53780;44.998;9.926;2022-07-29T02:13:20;23.34;75.74
66871;DHT22;53780;44.998;9.926;2022-07-29T02:16:26;23.34;75.52
66871;DHT22;53780;44.998;9.926;2022-07-29T02:19:32;23.41;75.00
66871;DHT22;53780;44.998;9.926;2022-07-29T02:22:38;23.40;74.83
66871;DHT22;53780;44.998;9.926;2022-07-29T02:25:42;23.46;74.63
66871;DHT22;53780;44.998;9.926;2022-07-29T02:28:48;23.43;75.05
66871;DHT22;53780;44.998;9.926;2022-07-29T02:31:54;23.34;75.12
66871;DHT22;53780;44.998;9.926;2022-07-29T02:35:01;23.28;75.33
66871;DHT22;53780;44.998;9.926;2022-07-29T02:38:06;23.22;75.91
66871;DHT22;53780;44.998;9.926;2022-07-29T02:41:45;23.23;75.67
66871;DHT22;53780;44.998;9.926;2022-07-29T02:44:50;23.28;75.57
66871;DHT22;53780;44.998;9.926;2022-07-29T02:47:55;23.27;76.15
66871;DHT22;53780;44.998;9.926;2022-07-29T02:51:08;23.16;76.89
66871;DHT22;53780;44.998;9.926;2022-07-29T02:54:41;23.00;78.11
66871;DHT22;53780;44.998;9.926;2022-07-29T03:01:24;22.72;79.48
66871;DHT22;53780;44.998;9.926;2022-07-29T03:04:30;22.65;79.90
66871;DHT22;53780;44.998;9.926;2022-07-29T03:07:36;22.57;80.17
66871;DHT22;53780;44.998;9.926;2022-07-29T03:10:43;22.54;80.28
66871;DHT22;53780;44.998;9.926;2022-07-29T03:13:48;22.58;80.52
66871;DHT22;53780;44.998;9.926;2022-07-29T03:16:52;22.61;80.50
66871;DHT22;53780;44.998;9.926;2022-07-29T03:19:56;22.58;80.46
66871;DHT22;53780;44.998;9.926;2022-07-29T03:23:01;22.48;80.83
66871;DHT22;53780;44.998;9.926;2022-07-29T03:26:04;22.43;80.93
66871;DHT22;53780;44.998;9.926;2022-07-29T03:29:08;22.40;81.28
66871;DHT22;53780;44.998;9.926;2022-07-29T03:32:12;22.33;81.70
66871;DHT22;53780;44.998;9.926;2022-07-29T03:35:16;22.29;81.87
66871;DHT22;53780;44.998;9.926;2022-07-29T03:38:23;22.25;81.85
66871;DHT22;53780;44.998;9.926;2022-07-29T03:41:28;22.29;81.82
66871;DHT22;53780;44.998;9.926;2022-07-29T03:44:33;22.34;81.53
66871;DHT22;53780;44.998;9.926;2022-07-29T03:47:42;22.40;81.48
66871;DHT22;53780;44.998;9.926;2022-07-29T03:50:46;22.47;81.17
66871;DHT22;53780;44.998;9.926;2022-07-29T03:53:51;22.38;81.26
66871;DHT22;53780;44.998;9.926;2022-07-29T03:56:59;22.31;81.50
66871;DHT22;53780;44.998;9.926;2022-07-29T04:00:05;22.29;81.78
66871;DHT22;53780;44.998;9.926;2022-07-29T04:03:09;22.27;81.95
66871;DHT22;53780;44.998;9.926;2022-07-29T04:06:14;22.29;81.53
66871;DHT22;53780;44.998;9.926;2022-07-29T04:09:18;22.13;81.74
66871;DHT22;53780;44.998;9.926;2022-07-29T04:12:21;22.00;82.08
66871;DHT22;53780;44.998;9.926;2022-07-29T04:15:26;22.02;82.36
66871;DHT22;53780;44.998;9.926;2022-07-29T04:18:32;21.92;82.81
66871;DHT22;53780;44.998;9.926;2022-07-29T04:21:40;21.83;83.42
66871;DHT22;53780;44.998;9.926;2022-07-29T04:24:43;21.81;83.67
66871;DHT22;53780;44.998;9.926;2022-07-29T04:27:47;21.82;83.84
66871;DHT22;53780;44.998;9.926;2022-07-29T04:31:06;21.85;84.03
66871;DHT22;53780;44.998;9.926;2022-07-29T04:34:11;22.03;83.67
66871;DHT22;53780;44.998;9.926;2022-07-29T04:37:15;22.13;83.10
66871;DHT22;53780;44.998;9.926;2022-07-29T04:40:19;22.20;83.10
66871;DHT22;53780;44.998;9.926;2022-07-29T04:43:23;22.25;82.87
66871;DHT22;53780;44.998;9.926;2022-07-29T04:46:27;22.27;82.84
66871;DHT22;53780;44.998;9.926;2022-07-29T04:49:32;22.38;83.17
66871;DHT22;53780;44.998;9.926;2022-07-29T04:52:36;22.38;82.70
66871;DHT22;53780;44.998;9.926;2022-07-29T04:55:40;22.43;82.81
66871;DHT22;53780;44.998;9.926;2022-07-29T04:58:44;22.45;82.62
66871;DHT22;53780;44.998;9.926;2022-07-29T05:01:49;22.58;82.24
66871;DHT22;53780;44.998;9.926;2022-07-29T05:04:53;22.69;82.30
66871;DHT22;53780;44.998;9.926;2022-07-29T05:07:57;22.79;82.70
66871;DHT22;53780;44.998;9.926;2022-07-29T05:11:01;22.84;82.80
66871;DHT22;53780;44.998;9.926;2022-07-29T05:14:05;22.93;82.94
66871;DHT22;53780;44.998;9.926;2022-07-29T05:17:09;23.02;82.84
66871;DHT22;53780;44.998;9.926;2022-07-29T05:20:12;23.17;82.90
66871;DHT22;53780;44.998;9.926;2022-07-29T05:23:16;23.39;83.07
66871;DHT22;53780;44.998;9.926;2022-07-29T05:26:21;23.54;81.99
66871;DHT22;53780;44.998;9.926;2022-07-29T05:29:25;23.75;81.50
66871;DHT22;53780;44.998;9.926;2022-07-29T05:32:29;24.04;80.12
66871;DHT22;53780;44.998;9.926;2022-07-29T05:35:33;24.20;79.59
66871;DHT22;53780;44.998;9.926;2022-07-29T05:38:38;24.30;78.94
66871;DHT22;53780;44.998;9.926;2022-07-29T05:41:42;24.40;78.99
66871;DHT22;53780;44.998;9.926;2022-07-29T05:44:46;24.74;77.87
66871;DHT22;53780;44.998;9.926;2022-07-29T05:47:51;24.98;77.79
66871;DHT22;53780;44.998;9.926;2022-07-29T05:50:55;25.22;76.03
66871;DHT22;53780;44.998;9.926;2022-07-29T05:53:58;25.56;74.82
66871;DHT22;53780;44.998;9.926;2022-07-29T05:57:02;26.00;73.47
66871;DHT22;53780;44.998;9.926;2022-07-29T06:00:07;26.29;71.14
66871;DHT22;53780;44.998;9.926;2022-07-29T06:03:20;26.72;68.73
66871;DHT22;53780;44.998;9.926;2022-07-29T06:06:24;27.00;69.25
66871;DHT22;53780;44.998;9.926;2022-07-29T06:09:28;27.34;67.80
66871;DHT22;53780;44.998;9.926;2022-07-29T06:12:31;27.56;67.55
66871;DHT22;53780;44.998;9.926;2022-07-29T06:15:35;27.71;66.61
66871;DHT22;53780;44.998;9.926;2022-07-29T06:18:39;27.82;65.06
66871;DHT22;53780;44.998;9.926;2022-07-29T06:21:43;27.92;65.59
66871;DHT22;53780;44.998;9.926;2022-07-29T06:24:47;28.11;64.13
66871;DHT22;53780;44.998;9.926;2022-07-29T06:27:51;28.38;62.71
66871;DHT22;53780;44.998;9.926;2022-07-29T06:30:55;28.53;62.97
66871;DHT22;53780;44.998;9.926;2022-07-29T06:33:59;28.49;62.44
66871;DHT22;53780;44.998;9.926;2022-07-29T06:37:08;28.51;64.41
66871;DHT22;53780;44.998;9.926;2022-07-29T06:40:12;28.65;62.14
66871;DHT22;53780;44.998;9.926;2022-07-29T06:43:39;29.03;61.21
66871;DHT22;53780;44.998;9.926;2022-07-29T06:46:45;28.68;60.99
66871;DHT22;53780;44.998;9.926;2022-07-29T06:49:52;28.86;62.87
66871;DHT22;53780;44.998;9.926;2022-07-29T06:52:56;29.26;61.11
66871;DHT22;53780;44.998;9.926;2022-07-29T06:56:01;29.66;59.60
66871;DHT22;53780;44.998;9.926;2022-07-29T06:59:09;29.50;58.54
66871;DHT22;53780;44.998;9.926;2022-07-29T07:02:16;29.99;57.79
66871;DHT22;53780;44.998;9.926;2022-07-29T07:05:20;29.82;58.43
66871;DHT22;53780;44.998;9.926;2022-07-29T07:08:24;30.23;56.32
66871;DHT22;53780;44.998;9.926;2022-07-29T07:11:28;30.38;57.33
66871;DHT22;53780;44.998;9.926;2022-07-29T07:14:32;30.78;53.95
66871;DHT22;53780;44.998;9.926;2022-07-29T07:17:35;31.13;52.98
66871;DHT22;53780;44.998;9.926;2022-07-29T07:20:41;31.15;53.97
66871;DHT22;53780;44.998;9.926;2022-07-29T07:23:46;31.31;53.23
66871;DHT22;53780;44.998;9.926;2022-07-29T07:26:50;31.08;55.33
66871;DHT22;53780;44.998;9.926;2022-07-29T07:29:54;31.37;52.07
66871;DHT22;53780;44.998;9.926;2022-07-29T07:32:59;31.57;52.52
66871;DHT22;53780;44.998;9.926;2022-07-29T07:36:03;31.81;53.04
66871;DHT22;53780;44.998;9.926;2022-07-29T07:39:08;31.58;51.82
66871;DHT22;53780;44.998;9.926;2022-07-29T07:42:12;31.81;51.65
66871;DHT22;53780;44.998;9.926;2022-07-29T07:45:16;31.51;50.40
66871;DHT22;53780;44.998;9.926;2022-07-29T07:48:21;31.44;53.33
66871;DHT22;53780;44.998;9.926;2022-07-29T07:51:25;30.68;53.17
66871;DHT22;53780;44.998;9.926;2022-07-29T07:54:28;31.37;53.08
66871;DHT22;53780;44.998;9.926;2022-07-29T07:57:32;31.41;51.14
66871;DHT22;53780;44.998;9.926;2022-07-29T08:00:36;31.58;51.29
66871;DHT22;53780;44.998;9.926;2022-07-29T08:03:39;31.66;50.84
66871;DHT22;53780;44.998;9.926;2022-07-29T08:06:43;32.04;51.27
66871;DHT22;53780;44.998;9.926;2022-07-29T08:09:47;31.82;50.37
66871;DHT22;53780;44.998;9.926;2022-07-29T08:12:51;31.99;50.36
66871;DHT22;53780;44.998;9.926;2022-07-29T08:15:55;32.36;48.88
66871;DHT22;53780;44.998;9.926;2022-07-29T08:19:03;32.29;48.89
66871;DHT22;53780;44.998;9.926;2022-07-29T08:22:07;32.66;48.70
66871;DHT22;53780;44.998;9.926;2022-07-29T08:25:11;32.74;49.64
66871;DHT22;53780;44.998;9.926;2022-07-29T08:28:15;32.98;48.83
66871;DHT22;53780;44.998;9.926;2022-07-29T08:31:19;32.77;47.16
66871;DHT22;53780;44.998;9.926;2022-07-29T08:34:23;31.16;50.16
66871;DHT22;53780;44.998;9.926;2022-07-29T08:37:26;31.70;49.20
66871;DHT22;53780;44.998;9.926;2022-07-29T08:40:30;32.28;48.52
66871;DHT22;53780;44.998;9.926;2022-07-29T08:43:34;32.16;50.48
66871;DHT22;53780;44.998;9.926;2022-07-29T08:46:40;32.59;46.85
66871;DHT22;53780;44.998;9.926;2022-07-29T08:49:45;32.67;45.69
66871;DHT22;53780;44.998;9.926;2022-07-29T08:52:51;32.44;47.22
66871;DHT22;53780;44.998;9.926;2022-07-29T08:55:55;32.57;46.71
66871;DHT22;53780;44.998;9.926;2022-07-29T08:59:03;33.07;45.22
66871;DHT22;53780;44.998;9.926;2022-07-29T09:02:15;33.33;47.03
66871;DHT22;53780;44.998;9.926;2022-07-29T09:05:23;32.55;45.04
66871;DHT22;53780;44.998;9.926;2022-07-29T09:08:28;32.61;47.97
66871;DHT22;53780;44.998;9.926;2022-07-29T09:11:32;32.90;45.15
66871;DHT22;53780;44.998;9.926;2022-07-29T09:14:37;33.24;45.20
66871;DHT22;53780;44.998;9.926;2022-07-29T09:17:48;33.70;44.03
66871;DHT22;53780;44.998;9.926;2022-07-29T09:20:52;33.38;44.03
66871;DHT22;53780;44.998;9.926;2022-07-29T09:24:15;33.51;43.12
66871;DHT22;53780;44.998;9.926;2022-07-29T09:27:26;33.41;44.18
66871;DHT22;53780;44.998;9.926;2022-07-29T09:30:30;32.15;45.64
66871;DHT22;53780;44.998;9.926;2022-07-29T09:33:34;32.32;44.73
66871;DHT22;53780;44.998;9.926;2022-07-29T09:36:47;33.04;44.71
66871;DHT22;53780;44.998;9.926;2022-07-29T09:39:52;33.46;45.34
66871;DHT22;53780;44.998;9.926;2022-07-29T09:42:56;33.83;42.74
66871;DHT22;53780;44.998;9.926;2022-07-29T09:46:13;34.28;42.13
66871;DHT22;53780;44.998;9.926;2022-07-29T09:49:17;34.62;41.52
66871;DHT22;53780;44.998;9.926;2022-07-29T09:52:21;34.52;40.52
66871;DHT22;53780;44.998;9.926;2022-07-29T09:55:25;34.10;43.36
66871;DHT22;53780;44.998;9.926;2022-07-29T09:58:29;34.18;40.98
66871;DHT22;53780;44.998;9.926;2022-07-29T10:01:32;34.38;40.97
66871;DHT22;53780;44.998;9.926;2022-07-29T10:04:41;34.69;41.11
66871;DHT22;53780;44.998;9.926;2022-07-29T10:07:49;35.10;40.38
66871;DHT22;53780;44.998;9.926;2022-07-29T10:11:09;34.42;40.44
66871;DHT22;53780;44.998;9.926;2022-07-29T10:14:14;33.56;42.17
66871;DHT22;53780;44.998;9.926;2022-07-29T10:17:18;33.08;44.37
66871;DHT22;53780;44.998;9.926;2022-07-29T10:20:23;33.86;42.49
66871;DHT22;53780;44.998;9.926;2022-07-29T10:23:28;33.85;44.03
66871;DHT22;53780;44.998;9.926;2022-07-29T10:26:33;34.14;40.76
66871;DHT22;53780;44.998;9.926;2022-07-29T10:29:37;34.59;41.42
66871;DHT22;53780;44.998;9.926;2022-07-29T10:32:54;34.78;40.78
66871;DHT22;53780;44.998;9.926;2022-07-29T10:37:17;34.63;41.91
66871;DHT22;53780;44.998;9.926;2022-07-29T10:40:33;35.00;39.94
66871;DHT22;53780;44.998;9.926;2022-07-29T10:44:07;34.99;40.03
66871;DHT22;53780;44.998;9.926;2022-07-29T10:47:24;35.44;41.30
66871;DHT22;53780;44.998;9.926;2022-07-29T10:51:01;35.18;39.31
66871;DHT22;53780;44.998;9.926;2022-07-29T10:54:07;34.88;40.96
66871;DHT22;53780;44.998;9.926;2022-07-29T11:00:27;35.34;40.22
66871;DHT22;53780;44.998;9.926;2022-07-29T11:17:00;36.09;39.59
66871;DHT22;53780;44.998;9.926;2022-07-29T11:20:33;35.93;38.61
66871;DHT22;53780;44.998;9.926;2022-07-29T11:23:38;34.96;42.01
66871;DHT22;53780;44.998;9.926;2022-07-29T11:26:43;35.50;41.41
66871;DHT22;53780;44.998;9.926;2022-07-29T11:29:55;36.33;40.41
66871;DHT22;53780;44.998;9.926;2022-07-29T11:32:59;36.82;40.00
66871;DHT22;53780;44.998;9.926;2022-07-29T11:36:10;37.08;38.18
66871;DHT22;53780;44.998;9.926;2022-07-29T11:39:27;36.84;38.68
66871;DHT22;53780;44.998;9.926;2022-07-29T11:45:46;36.22;39.41
66871;DHT22;53780;44.998;9.926;2022-07-29T11:48:51;36.63;38.64
66871;DHT22;53780;44.998;9.926;2022-07-29T11:51:57;36.43;37.73
66871;DHT22;53780;44.998;9.926;2022-07-29T11:55:03;35.45;39.63
66871;DHT22;53780;44.998;9.926;2022-07-29T11:58:08;34.21;43.36
66871;DHT22;53780;44.998;9.926;2022-07-29T12:01:16;34.75;41.12
66871;DHT22;53780;44.998;9.926;2022-07-29T12:04:22;35.14;40.30
66871;DHT22;53780;44.998;9.926;2022-07-29T12:07:31;35.41;40.50
66871;DHT22;53780;44.998;9.926;2022-07-29T12:10:35;35.64;40.23
66871;DHT22;53780;44.998;9.926;2022-07-29T12:13:39;35.14;40.21
66871;DHT22;53780;44.998;9.926;2022-07-29T12:16:43;34.31;42.12
66871;DHT22;53780;44.998;9.926;2022-07-29T12:19:47;34.37;42.04
66871;DHT22;53780;44.998;9.926;2022-07-29T12:22:51;34.55;41.34
66871;DHT22;53780;44.998;9.926;2022-07-29T12:25:58;34.18;41.80
66871;DHT22;53780;44.998;9.926;2022-07-29T12:29:02;33.86;43.09
66871;DHT22;53780;44.998;9.926;2022-07-29T12:32:06;33.55;44.72
66871;DHT22;53780;44.998;9.926;2022-07-29T12:35:17;33.59;43.69
66871;DHT22;53780;44.998;9.926;2022-07-29T12:38:21;33.33;43.46
66871;DHT22;53780;44.998;9.926;2022-07-29T12:41:28;33.62;44.27
66871;DHT22;53780;44.998;9.926;2022-07-29T12:44:48;33.93;44.27
66871;DHT22;53780;44.998;9.926;2022-07-29T12:47:52;34.14;43.88
66871;DHT22;53780;44.998;9.926;2022-07-29T12:51:01;33.97;42.85
66871;DHT22;53780;44.998;9.926;2022-07-29T12:54:10;34.00;43.12
66871;DHT22;53780;44.998;9.926;2022-07-29T12:57:15;33.66;44.29
66871;DHT22;53780;44.998;9.926;2022-07-29T13:00:23;33.66;44.55
66871;DHT22;53780;44.998;9.926;2022-07-29T13:03:27;33.74;45.04
66871;DHT22;53780;44.998;9.926;2022-07-29T13:06:44;33.85;44.26
66871;DHT22;53780;44.998;9.926;2022-07-29T13:09:49;33.70;45.70
66871;DHT22;53780;44.998;9.926;2022-07-29T13:13:13;33.39;44.61
66871;DHT22;53780;44.998;9.926;2022-07-29T13:16:18;32.84;45.52
66871;DHT22;53780;44.998;9.926;2022-07-29T13:19:39;32.81;45.39
66871;DHT22;53780;44.998;9.926;2022-07-29T13:22:47;32.56;47.19
66871;DHT22;53780;44.998;9.926;2022-07-29T13:25:51;32.50;47.44
66871;DHT22;53780;44.998;9.926;2022-07-29T13:28:55;32.60;46.82
66871;DHT22;53780;44.998;9.926;2022-07-29T13:31:59;32.35;47.01
66871;DHT22;53780;44.998;9.926;2022-07-29T13:35:06;32.36;47.68
66871;DHT22;53780;44.998;9.926;2022-07-29T13:38:10;32.37;47.26
66871;DHT22;53780;44.998;9.926;2022-07-29T13:41:15;32.43;48.84
66871;DHT22;53780;44.998;9.926;2022-07-29T13:44:19;32.28;48.55
66871;DHT22;53780;44.998;9.926;2022-07-29T13:47:23;31.92;47.70
66871;DHT22;53780;44.998;9.926;2022-07-29T13:50:27;31.70;48.24
66871;DHT22;53780;44.998;9.926;2022-07-29T13:53:30;31.09;51.44
66871;DHT22;53780;44.998;9.926;2022-07-29T13:56:35;30.63;54.22
66871;DHT22;53780;44.998;9.926;2022-07-29T13:59:42;30.44;54.48
66871;DHT22;53780;44.998;9.926;2022-07-29T14:02:45;30.14;55.84
66871;DHT22;53780;44.998;9.926;2022-07-29T14:05:49;30.06;56.52
66871;DHT22;53780;44.998;9.926;2022-07-29T14:08:53;29.99;58.99
66871;DHT22;53780;44.998;9.926;2022-07-29T14:11:57;29.58;63.80
66871;DHT22;53780;44.998;9.926;2022-07-29T14:15:01;29.21;62.04
66871;DHT22;53780;44.998;9.926;2022-07-29T14:18:04;29.04;61.93
66871;DHT22;53780;44.998;9.926;2022-07-29T14:21:08;28.69;65.28
66871;DHT22;53780;44.998;9.926;2022-07-29T14:24:13;28.18;62.95
66871;DHT22;53780;44.998;9.926;2022-07-29T14:27:16;27.97;68.58
66871;DHT22;53780;44.998;9.926;2022-07-29T14:30:21;27.43;70.03
66871;DHT22;53780;44.998;9.926;2022-07-29T14:33:24;26.95;71.06
66871;DHT22;53780;44.998;9.926;2022-07-29T14:36:30;26.53;70.89
66871;DHT22;53780;44.998;9.926;2022-07-29T14:39:35;26.09;69.03
66871;DHT22;53780;44.998;9.926;2022-07-29T14:42:40;24.92;75.20
66871;DHT22;53780;44.998;9.926;2022-07-29T14:45:44;24.37;75.13
66871;DHT22;53780;44.998;9.926;2022-07-29T14:48:48;24.36;78.03
66871;DHT22;53780;44.998;9.926;2022-07-29T14:51:52;24.63;76.81
66871;DHT22;53780;44.998;9.926;2022-07-29T14:54:55;24.52;78.45
66871;DHT22;53780;44.998;9.926;2022-07-29T14:57:59;24.47;74.26
66871;DHT22;53780;44.998;9.926;2022-07-29T15:01:03;24.13;74.06
66871;DHT22;53780;44.998;9.926;2022-07-29T15:04:07;23.98;76.97
66871;DHT22;53780;44.998;9.926;2022-07-29T15:07:11;24.09;78.06
66871;DHT22;53780;44.998;9.926;2022-07-29T15:10:15;24.25;78.69
66871;DHT22;53780;44.998;9.926;2022-07-29T15:13:18;24.06;78.43
66871;DHT22;53780;44.998;9.926;2022-07-29T15:16:23;24.20;79.16
66871;DHT22;53780;44.998;9.926;2022-07-29T15:19:28;24.20;78.66
66871;DHT22;53780;44.998;9.926;2022-07-29T15:22:31;23.74;80.25
66871;DHT22;53780;44.998;9.926;2022-07-29T15:25:35;23.54;80.68
66871;DHT22;53780;44.998;9.926;2022-07-29T15:28:39;23.43;81.45
66871;DHT22;53780;44.998;9.926;2022-07-29T15:31:44;23.41;81.47
66871;DHT22;53780;44.998;9.926;2022-07-29T15:34:48;23.22;82.94
66871;DHT22;53780;44.998;9.926;2022-07-29T15:37:53;23.23;87.75
66871;DHT22;53780;44.998;9.926;2022-07-29T15:40:56;23.34;88.38
66871;DHT22;53780;44.998;9.926;2022-07-29T15:44:01;23.39;88.58
66871;DHT22;53780;44.998;9.926;2022-07-29T15:47:05;23.40;86.95
66871;DHT22;53780;44.998;9.926;2022-07-29T15:50:12;23.20;87.61
66871;DHT22;53780;44.998;9.926;2022-07-29T15:53:19;22.93;86.45
66871;DHT22;53780;44.998;9.926;2022-07-29T15:56:24;23.26;87.25
66871;DHT22;53780;44.998;9.926;2022-07-29T15:59:27;23.41;85.06
66871;DHT22;53780;44.998;9.926;2022-07-29T16:02:32;23.31;81.23
66871;DHT22;53780;44.998;9.926;2022-07-29T16:05:35;23.41;82.11
66871;DHT22;53780;44.998;9.926;2022-07-29T16:08:39;23.54;82.85
66871;DHT22;53780;44.998;9.926;2022-07-29T16:11:44;23.71;83.13
66871;DHT22;53780;44.998;9.926;2022-07-29T16:14:53;23.78;81.91
66871;DHT22;53780;44.998;9.926;2022-07-29T16:17:57;23.81;79.63
66871;DHT22;53780;44.998;9.926;2022-07-29T16:21:01;23.82;80.15
66871;DHT22;53780;44.998;9.926;2022-07-29T16:24:06;23.88;78.78
66871;DHT22;53780;44.998;9.926;2022-07-29T16:27:10;23.82;77.44
66871;DHT22;53780;44.998;9.926;2022-07-29T16:30:14;23.68;77.51
66871;DHT22;53780;44.998;9.926;2022-07-29T16:33:18;23.77;81.15
66871;DHT22;53780;44.998;9.926;2022-07-29T16:36:22;23.72;80.96
66871;DHT22;53780;44.998;9.926;2022-07-29T16:39:26;23.61;78.97
66871;DHT22;53780;44.998;9.926;2022-07-29T16:42:30;23.64;79.36
66871;DHT22;53780;44.998;9.926;2022-07-29T16:45:34;23.75;79.26
66871;DHT22;53780;44.998;9.926;2022-07-29T16:48:39;23.89;80.94
66871;DHT22;53780;44.998;9.926;2022-07-29T16:51:43;23.92;81.41
66871;DHT22;53780;44.998;9.926;2022-07-29T16:54:47;23.98;79.79
66871;DHT22;53780;44.998;9.926;2022-07-29T16:57:51;23.92;80.74
66871;DHT22;53780;44.998;9.926;2022-07-29T17:00:58;24.08;80.47
66871;DHT22;53780;44.998;9.926;2022-07-29T17:04:01;24.19;81.02
66871;DHT22;53780;44.998;9.926;2022-07-29T17:07:08;24.19;81.93
66871;DHT22;53780;44.998;9.926;2022-07-29T17:10:12;24.20;82.64
66871;DHT22;53780;44.998;9.926;2022-07-29T17:13:15;24.26;83.22
66871;DHT22;53780;44.998;9.926;2022-07-29T17:16:19;24.16;83.78
66871;DHT22;53780;44.998;9.926;2022-07-29T17:19:32;24.22;83.17
66871;DHT22;53780;44.998;9.926;2022-07-29T17:22:38;24.20;81.21
66871;DHT22;53780;44.998;9.926;2022-07-29T17:25:43;24.17;80.02
66871;DHT22;53780;44.998;9.926;2022-07-29T17:28:47;24.30;79.79
66871;DHT22;53780;44.998;9.926;2022-07-29T17:31:51;24.43;80.89
66871;DHT22;53780;44.998;9.926;2022-07-29T17:34:55;24.46;82.91
66871;DHT22;53780;44.998;9.926;2022-07-29T17:38:00;24.30;82.85
66871;DHT22;53780;44.998;9.926;2022-07-29T17:41:04;24.16;84.69
66871;DHT22;53780;44.998;9.926;2022-07-29T17:44:08;24.01;83.48
66871;DHT22;53780;44.998;9.926;2022-07-29T17:47:12;23.95;84.06
66871;DHT22;53780;44.998;9.926;2022-07-29T17:50:15;23.89;83.06
66871;DHT22;53780;44.998;9.926;2022-07-29T17:53:19;23.85;82.62
66871;DHT22;53780;44.998;9.926;2022-07-29T17:56:23;23.90;85.01
66871;DHT22;53780;44.998;9.926;2022-07-29T17:59:27;23.71;82.91
66871;DHT22;53780;44.998;9.926;2022-07-29T18:02:31;23.79;85.04
66871;DHT22;53780;44.998;9.926;2022-07-29T18:05:35;23.75;84.64
66871;DHT22;53780;44.998;9.926;2022-07-29T18:08:39;23.77;84.43
66871;DHT22;53780;44.998;9.926;2022-07-29T18:11:44;23.79;84.19
66871;DHT22;53780;44.998;9.926;2022-07-29T18:14:48;23.77;83.41
66871;DHT22;53780;44.998;9.926;2022-07-29T18:17:52;23.78;83.14
66871;DHT22;53780;44.998;9.926;2022-07-29T18:20:58;23.78;83.70
66871;DHT22;53780;44.998;9.926;2022-07-29T18:24:02;23.74;84.13
66871;DHT22;53780;44.998;9.926;2022-07-29T18:27:06;23.79;84.63
66871;DHT22;53780;44.998;9.926;2022-07-29T18:30:10;23.75;84.46
66871;DHT22;53780;44.998;9.926;2022-07-29T18:33:15;23.61;84.32
66871;DHT22;53780;44.998;9.926;2022-07-29T18:36:22;23.47;84.32
66871;DHT22;53780;44.998;9.926;2022-07-29T18:39:26;23.53;84.89
66871;DHT22;53780;44.998;9.926;2022-07-29T18:42:30;23.53;84.72
66871;DHT22;53780;44.998;9.926;2022-07-29T18:45:34;23.54;85.64
66871;DHT22;53780;44.998;9.926;2022-07-29T18:48:38;23.62;86.16
66871;DHT22;53780;44.998;9.926;2022-07-29T18:51:42;23.57;85.78
66871;DHT22;53780;44.998;9.926;2022-07-29T18:54:46;23.54;85.67
66871;DHT22;53780;44.998;9.926;2022-07-29T18:57:50;23.34;86.93
66871;DHT22;53780;44.998;9.926;2022-07-29T19:00:54;23.07;86.71
66871;DHT22;53780;44.998;9.926;2022-07-29T19:03:58;23.02;87.13
66871;DHT22;53780;44.998;9.926;2022-07-29T19:07:03;22.96;87.70
66871;DHT22;53780;44.998;9.926;2022-07-29T19:10:07;22.95;87.81
66871;DHT22;53780;44.998;9.926;2022-07-29T19:13:11;22.91;87.63
66871;DHT22;53780;44.998;9.926;2022-07-29T19:16:15;23.02;87.67
66871;DHT22;53780;44.998;9.926;2022-07-29T19:19:20;23.00;88.05
66871;DHT22;53780;44.998;9.926;2022-07-29T19:22:26;22.79;89.17
66871;DHT22;53780;44.998;9.926;2022-07-29T19:25:31;22.72;88.52
66871;DHT22;53780;44.998;9.926;2022-07-29T19:28:35;22.78;89.02
66871;DHT22;53780;44.998;9.926;2022-07-29T19:31:39;22.88;87.14
66871;DHT22;53780;44.998;9.926;2022-07-29T19:34:43;22.96;86.82
66871;DHT22;53780;44.998;9.926;2022-07-29T19:38:07;23.06;87.20
66871;DHT22;53780;44.998;9.926;2022-07-29T19:41:11;23.16;86.59
66871;DHT22;53780;44.998;9.926;2022-07-29T19:44:15;23.22;86.10
66871;DHT22;53780;44.998;9.926;2022-07-29T19:47:20;23.23;85.85
66871;DHT22;53780;44.998;9.926;2022-07-29T19:50:24;23.28;85.85
66871;DHT22;53780;44.998;9.926;2022-07-29T19:53:28;23.28;85.96
66871;DHT22;53780;44.998;9.926;2022-07-29T19:56:33;23.26;86.69
66871;DHT22;53780;44.998;9.926;2022-07-29T19:59:37;23.09;86.11
66871;DHT22;53780;44.998;9.926;2022-07-29T20:02:41;23.06;86.50
66871;DHT22;53780;44.998;9.926;2022-07-29T20:05:45;22.92;86.50
66871;DHT22;53780;44.998;9.926;2022-07-29T20:08:50;22.89;86.59
66871;DHT22;53780;44.998;9.926;2022-07-29T20:11:54;22.88;86.63